LFBT 221130Z AUTO VRB02KT CAVOK 17/06 Q1033 NOSIG

ElémentsDécodage
LFBT Station météo située sur l'aérodrome de TARBES Lourdes-Pyrénées
221130Z émis le 22 du mois à 11h30 UTC
AUTO Bulletin édité par un automate
VRB02KT vent de direction variable, 02 noeuds
CAVOK Ceiling And Visibility OK
- Visibilité de 10 Km ou plus
- Pas de nuage au-dessous de 1500m ou au-dessous de l'altitude minimale du secteur la plus élevée (si>1500m) et absence de CB
- pas de temps présent significatif
17/06 température 17°C, point de rosée 06°C
 soit une humidité relative de 48%
Q1033 la pression au niveau de la mer (QNH) est de 1033 hPa
NOSIG Pas de changement significatif prévu au cours des deux heures suivant l'heure de l'observation